Time;durP1;ratioP1;P1;durP2;ratioP2;P2;SDS_P1;SDS_P2;PMS_P1;PMS_P2;Temp;Humidity;BMP_temperature;BMP_pressure;BME280_temperature;BME280_humidity;BME280_pressure;Samples;Min_cycle;Max_cycle;Signal;HPM_P1;HPM_P2
2021/09/08 00:00:53;;;;;;;;;;;20.60;69.00;;;;;;5033969;28;1406;-66
2021/09/08 00:03:19;;;;;;;;;;;20.60;69.10;;;;;;5035436;28;1636;-67
2021/09/08 00:05:44;;;;;;;;;;;20.60;69.10;;;;;;5035778;28;1472;-67
2021/09/08 00:08:09;;;;;;;;;;;20.60;69.10;;;;;;5017712;28;1388;-66
2021/09/08 00:10:35;;;;;;;;;;;20.60;69.20;;;;;;5034365;28;1678;-67
2021/09/08 00:13:00;;;;;;;;;;;20.60;69.30;;;;;;5035527;28;1612;-67
2021/09/08 00:15:26;;;;;;;;;;;20.60;69.30;;;;;;5035607;28;1965;-66
2021/09/08 00:17:51;;;;;;;;;;;20.60;69.30;;;;;;5035714;28;1652;-67
2021/09/08 00:20:17;;;;;;;;;;;20.60;69.30;;;;;;5035158;28;1428;-67
2021/09/08 00:22:43;;;;;;;;;;;20.60;69.40;;;;;;5017781;28;1709;-66
2021/09/08 00:25:08;;;;;;;;;;;20.60;69.40;;;;;;5016561;28;1568;-67
2021/09/08 00:27:34;;;;;;;;;;;20.60;69.40;;;;;;5034964;28;1262;-67
2021/09/08 00:29:59;;;;;;;;;;;20.60;69.40;;;;;;5034941;28;1617;-67
2021/09/08 00:32:24;;;;;;;;;;;20.60;69.50;;;;;;5035068;28;1640;-67
2021/09/08 00:34:50;;;;;;;;;;;20.60;69.50;;;;;;5034406;28;1663;-67
2021/09/08 00:37:15;;;;;;;;;;;20.60;69.50;;;;;;5034856;28;1895;-67
2021/09/08 00:39:41;;;;;;;;;;;20.60;69.60;;;;;;5034918;28;1620;-66
2021/09/08 00:42:10;;;;;;;;;;;20.60;69.60;;;;;;5016912;28;1432;-67
2021/09/08 00:44:35;;;;;;;;;;;20.60;69.60;;;;;;5035019;28;1521;-67
2021/09/08 00:47:01;;;;;;;;;;;20.60;69.60;;;;;;5035311;28;1380;-67
2021/09/08 00:49:26;;;;;;;;;;;20.60;69.60;;;;;;5034980;28;1510;-67
2021/09/08 00:51:52;;;;;;;;;;;20.60;69.70;;;;;;5034378;28;1734;-66
2021/09/08 00:54:19;;;;;;;;;;;20.60;69.70;;;;;;5016784;28;1613;-66
2021/09/08 00:56:44;;;;;;;;;;;20.60;69.80;;;;;;5016280;28;1906;-66
2021/09/08 00:59:10;;;;;;;;;;;20.60;69.70;;;;;;5034325;28;1719;-67
2021/09/08 01:01:35;;;;;;;;;;;20.60;69.70;;;;;;5033138;28;1419;-67
2021/09/08 01:04:00;;;;;;;;;;;20.60;69.80;;;;;;5032953;28;1502;-67
2021/09/08 01:06:26;;;;;;;;;;;20.60;69.80;;;;;;5033797;28;1649;-68
2021/09/08 01:08:54;;;;;;;;;;;20.60;69.80;;;;;;5034023;28;1598;-68
2021/09/08 01:11:20;;;;;;;;;;;20.60;69.80;;;;;;5017178;28;1705;-68
2021/09/08 01:13:45;;;;;;;;;;;20.60;69.80;;;;;;5034082;28;1716;-68
2021/09/08 01:16:11;;;;;;;;;;;20.60;70.60;;;;;;5034497;28;1902;-68
2021/09/08 01:18:37;;;;;;;;;;;20.60;69.90;;;;;;5034842;28;1636;-68
2021/09/08 01:21:02;;;;;;;;;;;20.60;69.90;;;;;;5034490;28;1627;-67
2021/09/08 01:23:27;;;;;;;;;;;20.60;69.90;;;;;;5016981;28;1787;-67
2021/09/08 01:25:53;;;;;;;;;;;20.60;69.90;;;;;;5034620;28;1287;-67
2021/09/08 01:28:18;;;;;;;;;;;20.60;69.90;;;;;;5034652;28;1633;-66
2021/09/08 01:30:44;;;;;;;;;;;20.60;69.90;;;;;;5034338;28;1658;-66
2021/09/08 01:33:12;;;;;;;;;;;20.60;70.00;;;;;;5034407;28;1518;-66
2021/09/08 01:35:38;;;;;;;;;;;20.60;70.00;;;;;;5034454;28;1906;-67
2021/09/08 01:38:03;;;;;;;;;;;20.60;70.00;;;;;;5033717;28;1630;-67
2021/09/08 01:40:29;;;;;;;;;;;20.60;70.00;;;;;;5034017;28;1657;-67
2021/09/08 01:42:54;;;;;;;;;;;20.60;70.00;;;;;;5016497;28;1659;-66
2021/09/08 01:45:20;;;;;;;;;;;20.60;70.00;;;;;;5016698;28;1550;-67
2021/09/08 01:47:46;;;;;;;;;;;20.60;70.10;;;;;;5034335;28;1436;-66
2021/09/08 01:50:11;;;;;;;;;;;20.60;70.10;;;;;;5034068;28;1681;-67
2021/09/08 01:52:39;;;;;;;;;;;20.60;70.10;;;;;;5034065;28;1582;-66
2021/09/08 01:55:05;;;;;;;;;;;20.60;70.10;;;;;;5016592;28;1302;-67
2021/09/08 01:57:31;;;;;;;;;;;20.60;70.10;;;;;;4999016;28;1906;-66
2021/09/08 01:59:56;;;;;;;;;;;20.60;70.10;;;;;;5026138;28;1600;-67
2021/09/08 02:02:22;;;;;;;;;;;20.60;70.20;;;;;;5033725;28;1621;-66
2021/09/08 02:04:47;;;;;;;;;;;20.60;70.20;;;;;;5033847;28;1698;-67
2021/09/08 02:07:13;;;;;;;;;;;20.60;70.20;;;;;;5033683;28;1568;-66
2021/09/08 02:09:38;;;;;;;;;;;20.60;70.20;;;;;;5033744;28;1549;-66
2021/09/08 02:12:04;;;;;;;;;;;20.60;70.20;;;;;;5033350;28;1642;-66
2021/09/08 02:14:29;;;;;;;;;;;20.60;70.20;;;;;;5033983;28;1617;-66
2021/09/08 02:16:54;;;;;;;;;;;20.60;70.20;;;;;;5033703;28;1956;-66
2021/09/08 02:19:20;;;;;;;;;;;20.60;70.20;;;;;;5016075;28;1574;-66
2021/09/08 02:21:45;;;;;;;;;;;20.60;70.20;;;;;;5033115;28;1384;-67
2021/09/08 02:24:11;;;;;;;;;;;20.60;70.30;;;;;;5027101;28;1512;-67
2021/09/08 02:26:36;;;;;;;;;;;20.60;70.20;;;;;;5007259;28;1245;-67
2021/09/08 02:29:02;;;;;;;;;;;20.60;70.30;;;;;;5009098;28;1391;-66
2021/09/08 02:31:27;;;;;;;;;;;20.60;70.20;;;;;;5022800;28;1401;-66
2021/09/08 02:33:52;;;;;;;;;;;20.60;70.30;;;;;;5005562;28;1400;-66
2021/09/08 02:36:20;;;;;;;;;;;20.60;70.30;;;;;;5030126;28;1956;-67
2021/09/08 02:38:45;;;;;;;;;;;20.60;70.30;;;;;;5032983;28;1394;-67
2021/09/08 02:41:11;;;;;;;;;;;20.60;70.30;;;;;;5032997;28;1360;-67
2021/09/08 02:43:36;;;;;;;;;;;20.60;70.30;;;;;;5033368;28;1373;-67
2021/09/08 02:46:03;;;;;;;;;;;20.60;70.40;;;;;;5033201;28;1595;-66
2021/09/08 02:48:29;;;;;;;;;;;20.60;70.40;;;;;;5033317;28;1670;-66
2021/09/08 02:50:55;;;;;;;;;;;20.60;70.40;;;;;;5018848;28;1701;-67
2021/09/08 02:53:20;;;;;;;;;;;20.60;70.40;;;;;;5032829;28;1654;-67
2021/09/08 02:55:46;;;;;;;;;;;20.60;70.40;;;;;;5032958;28;1967;-67
2021/09/08 02:58:11;;;;;;;;;;;20.60;70.40;;;;;;5032853;28;1069;-66
2021/09/08 03:00:37;;;;;;;;;;;20.60;70.50;;;;;;5032690;28;1383;-67
2021/09/08 03:03:02;;;;;;;;;;;20.60;70.40;;;;;;5054339;23;3820;-75
2021/09/08 03:05:28;;;;;;;;;;;20.60;70.40;;;;;;5052235;28;1086;-75
2021/09/08 03:07:53;;;;;;;;;;;20.60;70.40;;;;;;5018161;28;1327;-75
2021/09/08 03:10:19;;;;;;;;;;;20.60;70.40;;;;;;5017875;28;1205;-75
2021/09/08 03:12:44;;;;;;;;;;;20.60;70.50;;;;;;5010310;28;1392;-75
2021/09/08 03:15:10;;;;;;;;;;;20.60;70.50;;;;;;5032642;28;1073;-75
2021/09/08 03:17:35;;;;;;;;;;;20.60;70.50;;;;;;5032943;28;1906;-75
2021/09/08 03:20:01;;;;;;;;;;;20.60;70.50;;;;;;5032540;28;969;-75
2021/09/08 03:22:26;;;;;;;;;;;20.60;70.50;;;;;;5032430;28;1347;-75
2021/09/08 03:24:52;;;;;;;;;;;20.60;70.60;;;;;;5022591;28;1170;-75
2021/09/08 03:27:17;;;;;;;;;;;20.60;70.60;;;;;;5014916;28;1254;-75
2021/09/08 03:29:42;;;;;;;;;;;20.60;70.50;;;;;;5032513;28;1273;-75
2021/09/08 03:32:08;;;;;;;;;;;20.60;70.50;;;;;;5032312;28;1262;-75
2021/09/08 03:34:33;;;;;;;;;;;20.60;70.60;;;;;;5014867;28;1368;-76
2021/09/08 03:36:59;;;;;;;;;;;20.60;70.60;;;;;;5032302;28;1891;-75
2021/09/08 03:39:24;;;;;;;;;;;20.60;70.60;;;;;;5031181;28;1125;-75
2021/09/08 03:41:50;;;;;;;;;;;20.60;70.50;;;;;;5032274;28;1364;-75
2021/09/08 03:44:15;;;;;;;;;;;20.60;70.60;;;;;;5032412;28;1061;-75
2021/09/08 03:46:40;;;;;;;;;;;20.60;70.70;;;;;;5032560;28;1084;-75
2021/09/08 03:49:06;;;;;;;;;;;20.60;70.60;;;;;;5030983;28;1053;-75
2021/09/08 03:51:31;;;;;;;;;;;20.60;70.60;;;;;;5032000;28;1175;-75
2021/09/08 03:53:58;;;;;;;;;;;20.60;70.60;;;;;;5032175;28;1296;-75
2021/09/08 03:56:27;;;;;;;;;;;20.60;70.60;;;;;;5008852;28;1957;-75
2021/09/08 03:58:52;;;;;;;;;;;20.60;70.50;;;;;;5032378;28;1607;-75
2021/09/08 04:01:18;;;;;;;;;;;20.60;70.60;;;;;;5015255;28;1150;-75
2021/09/08 04:03:46;;;;;;;;;;;20.60;70.50;;;;;;5018023;28;1377;-75
2021/09/08 04:06:11;;;;;;;;;;;20.70;70.70;;;;;;5018126;28;1301;-75
2021/09/08 04:08:36;;;;;;;;;;;20.60;71.30;;;;;;5018165;28;1488;-75
2021/09/08 04:11:02;;;;;;;;;;;20.60;70.60;;;;;;5035881;28;1151;-75
2021/09/08 04:13:27;;;;;;;;;;;20.70;70.70;;;;;;5035682;28;1374;-75
2021/09/08 04:15:53;;;;;;;;;;;20.70;70.60;;;;;;5018282;28;1906;-75
2021/09/08 04:18:18;;;;;;;;;;;20.60;70.60;;;;;;5035667;28;1263;-76
2021/09/08 04:20:44;;;;;;;;;;;20.70;70.60;;;;;;5035400;28;1377;-75
2021/09/08 04:23:09;;;;;;;;;;;20.70;70.60;;;;;;5035495;28;1300;-75
2021/09/08 04:25:34;;;;;;;;;;;20.70;70.70;;;;;;5035755;28;1136;-75
2021/09/08 04:28:00;;;;;;;;;;;20.70;70.70;;;;;;5035516;28;1336;-75
2021/09/08 04:30:25;;;;;;;;;;;20.70;70.70;;;;;;5035405;28;1167;-75
2021/09/08 04:32:51;;;;;;;;;;;20.70;70.60;;;;;;5035701;28;1254;-74
2021/09/08 04:35:16;;;;;;;;;;;20.70;70.60;;;;;;5017572;28;1167;-75
2021/09/08 04:37:42;;;;;;;;;;;20.70;70.60;;;;;;5035337;28;1898;-75
2021/09/08 04:40:07;;;;;;;;;;;20.70;70.60;;;;;;5035101;28;1304;-75
2021/09/08 04:42:33;;;;;;;;;;;20.70;70.60;;;;;;5035307;28;1351;-75
2021/09/08 04:44:58;;;;;;;;;;;20.70;70.60;;;;;;5017561;28;1650;-75
2021/09/08 04:47:24;;;;;;;;;;;20.70;70.70;;;;;;5035351;28;1076;-75
2021/09/08 04:49:49;;;;;;;;;;;20.70;70.60;;;;;;5035111;28;1191;-75
2021/09/08 04:52:15;;;;;;;;;;;20.70;70.60;;;;;;5035213;28;1364;-75
2021/09/08 04:54:41;;;;;;;;;;;20.70;70.60;;;;;;5034178;28;1407;-75
2021/09/08 04:57:06;;;;;;;;;;;20.70;70.70;;;;;;5028974;28;1963;-75
2021/09/08 04:59:31;;;;;;;;;;;20.70;70.60;;;;;;5035156;28;1084;-75
2021/09/08 05:01:57;;;;;;;;;;;20.70;70.60;;;;;;5034647;28;1363;-75
2021/09/08 05:04:22;;;;;;;;;;;20.70;70.70;;;;;;5016879;28;1085;-75
2021/09/08 05:06:48;;;;;;;;;;;20.70;70.70;;;;;;5035018;28;1144;-75
2021/09/08 05:09:13;;;;;;;;;;;20.70;70.70;;;;;;5034809;28;1120;-75
2021/09/08 05:11:39;;;;;;;;;;;20.70;70.70;;;;;;5034686;28;1279;-75
2021/09/08 05:14:04;;;;;;;;;;;20.70;70.70;;;;;;5033928;28;1291;-75
2021/09/08 05:16:29;;;;;;;;;;;20.70;70.70;;;;;;5016922;28;1910;-75
2021/09/08 05:18:55;;;;;;;;;;;20.80;70.70;;;;;;5034510;28;1224;-75
2021/09/08 05:21:20;;;;;;;;;;;20.70;70.70;;;;;;5016633;28;1209;-76
2021/09/08 05:23:46;;;;;;;;;;;20.70;70.60;;;;;;5017408;28;1206;-75
2021/09/08 05:26:11;;;;;;;;;;;20.70;70.70;;;;;;5009785;28;1089;-75
2021/09/08 05:28:37;;;;;;;;;;;20.80;70.70;;;;;;5033193;28;1511;-76
2021/09/08 05:31:02;;;;;;;;;;;20.70;70.70;;;;;;5034340;28;1143;-76
2021/09/08 05:33:27;;;;;;;;;;;20.80;70.70;;;;;;5010869;28;1307;-76
2021/09/08 05:35:53;;;;;;;;;;;20.70;70.70;;;;;;5026878;28;1910;-76
2021/09/08 05:38:20;;;;;;;;;;;20.80;70.70;;;;;;5000093;28;1177;-76
2021/09/08 05:40:46;;;;;;;;;;;20.70;70.60;;;;;;5033479;28;1913;-75
2021/09/08 05:43:12;;;;;;;;;;;20.70;70.70;;;;;;5031751;28;1984;-75
2021/09/08 05:45:37;;;;;;;;;;;20.80;70.70;;;;;;5031997;28;1324;-75
2021/09/08 05:48:03;;;;;;;;;;;20.80;70.70;;;;;;5027537;28;1464;-75
2021/09/08 05:50:28;;;;;;;;;;;20.80;70.70;;;;;;5033052;28;1770;-76
2021/09/08 05:52:54;;;;;;;;;;;20.80;70.70;;;;;;5029428;28;1607;-73
2021/09/08 05:55:19;;;;;;;;;;;20.70;70.60;;;;;;5027110;28;1170;-72
2021/09/08 05:57:45;;;;;;;;;;;20.80;70.70;;;;;;5033900;28;1898;-73
2021/09/08 06:00:10;;;;;;;;;;;20.80;70.70;;;;;;5033239;28;1371;-74
2021/09/08 06:02:36;;;;;;;;;;;20.70;70.70;;;;;;5033475;28;1290;-72
2021/09/08 06:05:01;;;;;;;;;;;20.70;70.70;;;;;;5033479;28;1286;-73
2021/09/08 06:07:27;;;;;;;;;;;20.80;70.70;;;;;;5033977;28;1337;-73
2021/09/08 06:09:52;;;;;;;;;;;20.80;68.90;;;;;;5033706;28;1327;-73
2021/09/08 06:12:18;;;;;;;;;;;20.80;67.40;;;;;;5016001;28;1506;-73
2021/09/08 06:14:43;;;;;;;;;;;20.70;67.70;;;;;;5033720;28;1367;-73
2021/09/08 06:17:09;;;;;;;;;;;20.70;68.80;;;;;;5033371;28;1957;-73
2021/09/08 06:19:35;;;;;;;;;;;20.70;68.70;;;;;;5033767;28;1301;-73
2021/09/08 06:22:01;;;;;;;;;;;20.70;68.80;;;;;;5033065;28;1309;-73
2021/09/08 06:24:27;;;;;;;;;;;20.70;69.00;;;;;;5033528;28;1348;-73
2021/09/08 06:26:52;;;;;;;;;;;20.70;69.40;;;;;;5033277;28;1060;-73
2021/09/08 06:29:18;;;;;;;;;;;20.70;69.10;;;;;;5033384;28;1005;-74
2021/09/08 06:31:43;;;;;;;;;;;20.70;69.30;;;;;;5032994;28;1435;-73
2021/09/08 06:34:09;;;;;;;;;;;20.70;69.20;;;;;;5033057;28;1330;-73
2021/09/08 06:36:34;;;;;;;;;;;20.70;69.50;;;;;;5033333;28;1961;-74
2021/09/08 06:39:00;;;;;;;;;;;20.70;69.10;;;;;;5015596;28;1296;-75
2021/09/08 06:41:25;;;;;;;;;;;20.70;69.00;;;;;;5015568;28;1352;-71
2021/09/08 06:43:51;;;;;;;;;;;20.70;69.20;;;;;;5032945;28;1208;-74
2021/09/08 06:46:16;;;;;;;;;;;20.70;69.10;;;;;;5033170;28;1176;-73
2021/09/08 06:48:42;;;;;;;;;;;20.70;68.90;;;;;;5032520;28;1013;-74
2021/09/08 06:51:07;;;;;;;;;;;20.70;68.90;;;;;;5032721;28;1450;-74
2021/09/08 06:53:33;;;;;;;;;;;20.70;69.00;;;;;;5009197;28;2032;-74
2021/09/08 06:55:58;;;;;;;;;;;20.70;68.90;;;;;;5024174;28;2185;-74
2021/09/08 06:58:24;;;;;;;;;;;20.70;69.00;;;;;;5024771;28;2287;-74
2021/09/08 07:00:49;;;;;;;;;;;20.70;69.00;;;;;;5030163;28;1841;-74
2021/09/08 07:03:14;;;;;;;;;;;20.70;69.10;;;;;;5025275;28;1292;-74
2021/09/08 07:05:40;;;;;;;;;;;20.70;68.90;;;;;;5027027;28;1333;-74
2021/09/08 07:08:07;;;;;;;;;;;20.70;68.70;;;;;;5030340;28;1067;-74
2021/09/08 07:10:32;;;;;;;;;;;20.70;68.80;;;;;;5026161;28;1230;-74
2021/09/08 07:12:58;;;;;;;;;;;20.60;69.50;;;;;;5027284;28;1296;-74
2021/09/08 07:15:23;;;;;;;;;;;20.60;68.60;;;;;;5030199;28;1099;-74
2021/09/08 07:17:48;;;;;;;;;;;20.70;68.80;;;;;;5030507;28;1898;-75
2021/09/08 07:20:14;;;;;;;;;;;20.60;68.70;;;;;;5031291;28;1341;-73
2021/09/08 07:22:39;;;;;;;;;;;20.70;68.90;;;;;;5031546;28;1273;-73
2021/09/08 07:25:05;;;;;;;;;;;20.70;68.80;;;;;;5023744;28;1112;-74
2021/09/08 07:27:30;;;;;;;;;;;20.70;68.70;;;;;;5023701;28;1274;-74
2021/09/08 07:29:56;;;;;;;;;;;20.70;68.80;;;;;;5032364;28;1112;-73
2021/09/08 07:32:21;;;;;;;;;;;20.60;68.70;;;;;;5013436;28;1370;-74
2021/09/08 07:34:47;;;;;;;;;;;20.60;68.90;;;;;;5032215;28;1132;-74
2021/09/08 07:37:12;;;;;;;;;;;20.70;68.80;;;;;;5034687;28;1954;-74
2021/09/08 07:39:38;;;;;;;;;;;20.60;68.90;;;;;;5035213;28;1167;-74
2021/09/08 07:42:03;;;;;;;;;;;20.70;69.10;;;;;;5034771;28;1308;-74
2021/09/08 07:44:29;;;;;;;;;;;20.60;69.10;;;;;;5036370;28;1348;-74
2021/09/08 07:46:54;;;;;;;;;;;20.70;69.10;;;;;;5018825;28;1073;-74
2021/09/08 07:49:19;;;;;;;;;;;20.70;69.90;;;;;;5036212;28;1048;-74
2021/09/08 07:51:45;;;;;;;;;;;20.60;69.10;;;;;;5036043;28;1127;-74
2021/09/08 07:54:10;;;;;;;;;;;20.60;69.10;;;;;;5034990;28;1234;-74
2021/09/08 07:56:36;;;;;;;;;;;20.60;69.00;;;;;;5030522;28;1902;-74
2021/09/08 07:59:01;;;;;;;;;;;20.70;69.00;;;;;;5018401;28;1317;-73
2021/09/08 08:01:29;;;;;;;;;;;20.60;69.00;;;;;;5035646;28;1285;-74
2021/09/08 08:03:55;;;;;;;;;;;20.60;68.70;;;;;;5035956;28;1348;-74
2021/09/08 08:06:20;;;;;;;;;;;20.60;68.90;;;;;;5036051;28;1266;-74
2021/09/08 08:08:46;;;;;;;;;;;20.60;68.90;;;;;;5018096;28;1399;-74
2021/09/08 08:11:11;;;;;;;;;;;20.60;68.70;;;;;;5018027;28;1318;-74
2021/09/08 08:13:36;;;;;;;;;;;20.60;68.90;;;;;;5035724;28;1276;-74
2021/09/08 08:16:02;;;;;;;;;;;20.60;68.70;;;;;;5035728;28;1887;-73
2021/09/08 08:18:27;;;;;;;;;;;20.70;68.80;;;;;;5034479;28;1072;-73
2021/09/08 08:20:53;;;;;;;;;;;20.70;68.90;;;;;;5035592;28;1426;-74
2021/09/08 08:23:18;;;;;;;;;;;20.60;68.70;;;;;;5035550;28;1267;-74
2021/09/08 08:25:44;;;;;;;;;;;20.70;68.90;;;;;;5026074;28;1249;-74
2021/09/08 08:28:09;;;;;;;;;;;20.70;68.80;;;;;;5035604;28;1362;-74
2021/09/08 08:30:35;;;;;;;;;;;20.70;68.80;;;;;;5035060;28;1131;-74
2021/09/08 08:33:00;;;;;;;;;;;20.70;68.70;;;;;;5014385;28;1797;-74
2021/09/08 08:35:26;;;;;;;;;;;20.70;68.60;;;;;;5034200;28;1163;-76
2021/09/08 08:37:51;;;;;;;;;;;20.70;68.70;;;;;;5021200;28;1950;-76
2021/09/08 08:40:17;;;;;;;;;;;20.70;68.70;;;;;;5012941;28;1197;-75
2021/09/08 08:42:42;;;;;;;;;;;20.70;68.70;;;;;;5033109;28;1716;-76
2021/09/08 08:45:08;;;;;;;;;;;20.70;68.80;;;;;;5007367;28;1199;-75
2021/09/08 08:47:33;;;;;;;;;;;20.70;68.80;;;;;;5012391;28;1190;-75
2021/09/08 08:49:59;;;;;;;;;;;20.70;68.80;;;;;;5014695;28;1492;-75
2021/09/08 08:52:24;;;;;;;;;;;20.70;68.80;;;;;;5021099;28;1205;-76
2021/09/08 08:54:50;;;;;;;;;;;20.70;68.80;;;;;;5024924;28;1008;-76
2021/09/08 08:57:15;;;;;;;;;;;20.70;68.80;;;;;;5019641;28;1967;-76
2021/09/08 08:59:41;;;;;;;;;;;20.70;68.80;;;;;;5007747;28;1363;-76
2021/09/08 09:02:26;;;;;;;;;;;20.70;68.80;;;;;;5027222;28;1314;-76
2021/09/08 09:07:27;;;;;;;;;;;20.70;68.80;;;;;;5335387;23;1886;-76
2021/09/08 09:09:56;;;;;;;;;;;20.70;68.80;;;;;;5048930;28;1241;-76
2021/09/08 09:12:35;;;;;;;;;;;20.70;68.60;;;;;;5018319;28;1463;-76
2021/09/08 09:15:04;;;;;;;;;;;20.70;68.60;;;;;;5063375;28;1293;-76
2021/09/08 09:17:30;;;;;;;;;;;20.70;68.70;;;;;;5040582;28;1906;-76
2021/09/08 09:19:56;;;;;;;;;;;20.70;68.60;;;;;;5004958;28;2036;-76
2021/09/08 09:22:24;;;;;;;;;;;20.80;68.60;;;;;;5041578;28;1617;-76
2021/09/08 09:24:52;;;;;;;;;;;20.80;68.50;;;;;;4997566;28;1266;-76
2021/09/08 09:27:18;;;;;;;;;;;20.80;68.20;;;;;;5019403;28;1282;-76
2021/09/08 09:29:43;;;;;;;;;;;20.70;68.20;;;;;;5029354;28;929;-76
2021/09/08 09:32:11;;;;;;;;;;;20.80;68.30;;;;;;5024041;28;851;-76
2021/09/08 09:34:37;;;;;;;;;;;20.80;68.20;;;;;;5032395;28;1022;-75
2021/09/08 09:37:02;;;;;;;;;;;20.80;68.20;;;;;;5016704;28;1957;-75
2021/09/08 09:39:28;;;;;;;;;;;20.80;68.10;;;;;;5015074;28;2077;-76
2021/09/08 09:41:57;;;;;;;;;;;20.80;68.20;;;;;;5025362;28;923;-75
2021/09/08 09:44:22;;;;;;;;;;;20.80;68.40;;;;;;5027548;28;1899;-75
2021/09/08 09:46:49;;;;;;;;;;;20.80;68.40;;;;;;5042026;28;1354;-77
2021/09/08 09:49:15;;;;;;;;;;;20.80;68.50;;;;;;5006701;28;1089;-77
2021/09/08 09:51:41;;;;;;;;;;;20.80;68.50;;;;;;5005659;28;1239;-76
2021/09/08 09:54:06;;;;;;;;;;;20.80;68.50;;;;;;5000809;28;1199;-76
2021/09/08 09:56:32;;;;;;;;;;;20.80;68.40;;;;;;5017534;28;1915;-77
2021/09/08 09:58:57;;;;;;;;;;;20.80;68.30;;;;;;4993361;28;1631;-76
2021/09/08 10:01:23;;;;;;;;;;;20.80;68.20;;;;;;5024352;28;1069;-76
2021/09/08 10:03:48;;;;;;;;;;;20.80;68.20;;;;;;5003178;28;1069;-76
2021/09/08 10:06:14;;;;;;;;;;;20.90;68.30;;;;;;5024015;28;1345;-76
2021/09/08 10:08:43;;;;;;;;;;;20.80;68.30;;;;;;5027112;28;1120;-78
2021/09/08 10:11:09;;;;;;;;;;;20.90;67.80;;;;;;5024296;28;1080;-76
2021/09/08 10:13:38;;;;;;;;;;;20.90;67.60;;;;;;4996163;28;1155;-76
2021/09/08 10:16:03;;;;;;;;;;;20.90;67.50;;;;;;4996234;28;1969;-76
2021/09/08 10:18:30;;;;;;;;;;;20.90;67.40;;;;;;5009321;28;1203;-77
2021/09/08 10:21:03;;;;;;;;;;;20.90;68.10;;;;;;5007249;28;1088;-75
2021/09/08 10:23:30;;;;;;;;;;;20.90;67.50;;;;;;5001542;28;1231;-77
2021/09/08 10:25:56;;;;;;;;;;;20.90;67.60;;;;;;5007409;28;1345;-76
2021/09/08 10:28:22;;;;;;;;;;;20.90;67.70;;;;;;4996142;28;1184;-76
2021/09/08 10:30:48;;;;;;;;;;;20.90;67.70;;;;;;5007625;28;1351;-77
2021/09/08 10:33:13;;;;;;;;;;;20.90;67.60;;;;;;5011354;28;1609;-77
2021/09/08 10:35:39;;;;;;;;;;;20.90;67.70;;;;;;5024831;28;1155;-76
2021/09/08 10:38:17;;;;;;;;;;;20.90;67.60;;;;;;5015171;28;1903;-76
2021/09/08 10:40:43;;;;;;;;;;;20.90;67.60;;;;;;4989432;28;1387;-76
2021/09/08 10:43:08;;;;;;;;;;;20.90;67.60;;;;;;5025656;28;1097;-77
2021/09/08 10:45:34;;;;;;;;;;;20.90;67.60;;;;;;5026334;28;1072;-76
2021/09/08 10:48:00;;;;;;;;;;;20.90;67.50;;;;;;5014054;28;1201;-77
2021/09/08 10:50:35;;;;;;;;;;;20.90;67.10;;;;;;4996073;28;1234;-77
2021/09/08 10:53:18;;;;;;;;;;;20.90;67.00;;;;;;5021545;28;1100;-77
2021/09/08 10:55:44;;;;;;;;;;;20.90;66.90;;;;;;5009350;28;1343;-77
2021/09/08 10:58:10;;;;;;;;;;;21.00;65.80;;;;;;5015512;28;2048;-77
2021/09/08 11:00:37;;;;;;;;;;;21.00;66.00;;;;;;4998859;28;1159;-76
2021/09/08 11:03:03;;;;;;;;;;;21.00;66.40;;;;;;4989569;28;1176;-77
2021/09/08 11:05:28;;;;;;;;;;;21.00;66.50;;;;;;4998600;28;1148;-76
2021/09/08 11:07:54;;;;;;;;;;;21.00;66.50;;;;;;5023094;28;1266;-76
2021/09/08 11:10:24;;;;;;;;;;;21.00;66.40;;;;;;4998507;28;1206;-77
2021/09/08 11:12:50;;;;;;;;;;;21.00;66.40;;;;;;4995233;28;1096;-77
2021/09/08 11:15:15;;;;;;;;;;;21.00;66.40;;;;;;4995837;28;1171;-77
2021/09/08 11:17:41;;;;;;;;;;;21.00;66.70;;;;;;4995237;28;1910;-76
2021/09/08 11:20:07;;;;;;;;;;;21.00;66.40;;;;;;4995505;28;1140;-76
2021/09/08 11:22:32;;;;;;;;;;;21.00;66.30;;;;;;5023784;28;1053;-76
2021/09/08 11:25:08;;;;;;;;;;;21.00;66.30;;;;;;5007486;28;1064;-77
2021/09/08 11:27:33;;;;;;;;;;;21.00;66.30;;;;;;5025010;28;1141;-77
2021/09/08 11:30:09;;;;;;;;;;;21.00;66.20;;;;;;5002122;28;1052;-76
2021/09/08 11:32:53;;;;;;;;;;;21.00;66.50;;;;;;5020157;28;1312;-76
2021/09/08 11:35:37;;;;;;;;;;;21.00;66.40;;;;;;5021903;28;1056;-77
2021/09/08 11:38:03;;;;;;;;;;;21.00;66.50;;;;;;5019300;28;1906;-77
2021/09/08 11:40:28;;;;;;;;;;;21.00;66.50;;;;;;5033041;28;1108;-77
2021/09/08 11:42:54;;;;;;;;;;;21.00;66.60;;;;;;4998444;28;1260;-77
2021/09/08 11:45:26;;;;;;;;;;;21.00;66.70;;;;;;5021767;28;1064;-76
2021/09/08 11:47:51;;;;;;;;;;;21.00;66.80;;;;;;5007916;28;1400;-76
2021/09/08 11:50:17;;;;;;;;;;;21.00;66.60;;;;;;5007810;28;1167;-76
2021/09/08 11:52:42;;;;;;;;;;;21.00;66.80;;;;;;5013929;28;1145;-76
2021/09/08 11:55:21;;;;;;;;;;;21.00;66.70;;;;;;5017519;28;1147;-76
2021/09/08 11:57:47;;;;;;;;;;;21.00;66.80;;;;;;4985937;28;1965;-76
2021/09/08 12:00:13;;;;;;;;;;;21.00;66.00;;;;;;5014014;28;1113;-77
2021/09/08 12:02:38;;;;;;;;;;;21.00;66.20;;;;;;4995048;28;1388;-76
2021/09/08 12:05:04;;;;;;;;;;;21.00;66.10;;;;;;4995302;28;1124;-77
2021/09/08 12:07:29;;;;;;;;;;;21.00;66.10;;;;;;5012338;28;1225;-77
2021/09/08 12:09:55;;;;;;;;;;;21.00;66.20;;;;;;5008033;28;1181;-77
2021/09/08 12:12:20;;;;;;;;;;;21.00;65.90;;;;;;5012765;28;1100;-76
2021/09/08 12:14:46;;;;;;;;;;;21.00;65.80;;;;;;4995361;28;1264;-77
2021/09/08 12:17:15;;;;;;;;;;;21.00;65.60;;;;;;5001348;28;1910;-77
2021/09/08 12:19:41;;;;;;;;;;;21.00;65.70;;;;;;5018844;28;1044;-76
2021/09/08 12:22:20;;;;;;;;;;;21.00;65.80;;;;;;5019912;28;1081;-76
2021/09/08 12:24:46;;;;;;;;;;;21.00;65.70;;;;;;4992513;28;1267;-76
2021/09/08 12:27:24;;;;;;;;;;;21.00;65.70;;;;;;5026706;28;1302;-76
2021/09/08 12:29:49;;;;;;;;;;;21.00;65.70;;;;;;5029481;28;1179;-76
2021/09/08 12:32:16;;;;;;;;;;;21.00;65.60;;;;;;5018009;28;1065;-76
2021/09/08 12:34:43;;;;;;;;;;;21.00;65.70;;;;;;5022452;28;1107;-76
2021/09/08 12:37:08;;;;;;;;;;;21.00;65.70;;;;;;5007116;28;1969;-76
2021/09/08 12:39:40;;;;;;;;;;;21.00;65.80;;;;;;5011437;28;1120;-76
2021/09/08 12:42:06;;;;;;;;;;;21.00;65.70;;;;;;5009867;28;1096;-77
2021/09/08 12:44:35;;;;;;;;;;;21.00;65.70;;;;;;5017604;28;1103;-76
2021/09/08 12:47:07;;;;;;;;;;;21.00;65.70;;;;;;5009732;28;1295;-76
2021/09/08 12:49:32;;;;;;;;;;;21.10;64.60;;;;;;4988513;28;1318;-76
2021/09/08 12:51:58;;;;;;;;;;;21.10;65.40;;;;;;5035308;28;1123;-76
2021/09/08 12:54:23;;;;;;;;;;;21.10;66.20;;;;;;5011567;28;1096;-76
2021/09/08 12:56:49;;;;;;;;;;;21.10;65.50;;;;;;5003464;28;1899;-75
2021/09/08 12:59:19;;;;;;;;;;;21.00;65.30;;;;;;5034427;28;1174;-76
2021/09/08 13:01:45;;;;;;;;;;;21.10;65.20;;;;;;5022003;28;1115;-76
2021/09/08 13:04:10;;;;;;;;;;;21.10;65.40;;;;;;4997778;28;1254;-77
2021/09/08 13:06:36;;;;;;;;;;;21.00;65.30;;;;;;5027966;28;1350;-76
2021/09/08 13:09:01;;;;;;;;;;;21.10;65.70;;;;;;4998009;28;1203;-76
2021/09/08 13:11:27;;;;;;;;;;;21.00;65.70;;;;;;5010579;28;1140;-77
2021/09/08 13:13:52;;;;;;;;;;;21.00;65.60;;;;;;5003932;28;1132;-76
2021/09/08 13:16:18;;;;;;;;;;;21.00;65.40;;;;;;5022009;28;1902;-77
2021/09/08 13:18:43;;;;;;;;;;;21.00;65.80;;;;;;4997192;28;1195;-76
2021/09/08 13:21:08;;;;;;;;;;;21.00;65.60;;;;;;5015070;28;1053;-75
2021/09/08 13:23:34;;;;;;;;;;;21.00;65.60;;;;;;5028232;28;1198;-76
2021/09/08 13:25:59;;;;;;;;;;;21.00;65.30;;;;;;5009138;28;1217;-77
2021/09/08 13:28:25;;;;;;;;;;;21.10;65.00;;;;;;4997296;28;1179;-78
2021/09/08 13:30:50;;;;;;;;;;;21.10;65.10;;;;;;5027932;28;1069;-77
2021/09/08 13:33:16;;;;;;;;;;;21.10;65.00;;;;;;5000346;28;1141;-77
2021/09/08 13:35:41;;;;;;;;;;;21.10;63.80;;;;;;5033729;28;1259;-77
2021/09/08 13:38:07;;;;;;;;;;;21.10;63.60;;;;;;5000303;28;1960;-76
2021/09/08 13:40:32;;;;;;;;;;;21.10;64.50;;;;;;5034665;28;1119;-77
2021/09/08 13:42:58;;;;;;;;;;;21.10;64.80;;;;;;5016578;28;1320;-77
2021/09/08 13:45:23;;;;;;;;;;;21.10;65.10;;;;;;5004962;28;1159;-76
2021/09/08 13:47:49;;;;;;;;;;;21.10;65.20;;;;;;5027295;28;1224;-76
2021/09/08 13:50:14;;;;;;;;;;;21.10;65.30;;;;;;5013245;28;1183;-77
2021/09/08 13:52:40;;;;;;;;;;;21.10;65.30;;;;;;4982714;28;1109;-76
2021/09/08 13:55:05;;;;;;;;;;;21.10;65.10;;;;;;5012196;28;1127;-76
2021/09/08 13:57:31;;;;;;;;;;;21.10;65.20;;;;;;4998072;28;2094;-77
2021/09/08 13:59:56;;;;;;;;;;;21.10;65.20;;;;;;5016375;28;1060;-77
2021/09/08 14:02:22;;;;;;;;;;;21.10;65.30;;;;;;4995356;28;1056;-76
2021/09/08 14:04:47;;;;;;;;;;;21.10;65.40;;;;;;5016481;28;1120;-77
2021/09/08 14:07:13;;;;;;;;;;;21.10;65.60;;;;;;4996383;28;1350;-78
2021/09/08 14:09:38;;;;;;;;;;;21.10;65.50;;;;;;5004995;28;1077;-76
2021/09/08 14:12:04;;;;;;;;;;;21.10;65.50;;;;;;5014341;28;1184;-77
2021/09/08 14:14:29;;;;;;;;;;;21.10;65.30;;;;;;5033918;28;1085;-76
2021/09/08 14:16:54;;;;;;;;;;;21.10;64.50;;;;;;4998062;28;1968;-76
2021/09/08 14:19:20;;;;;;;;;;;21.10;64.40;;;;;;5007283;28;1191;-77
2021/09/08 14:21:45;;;;;;;;;;;21.10;64.70;;;;;;5016019;28;1421;-77
2021/09/08 14:24:12;;;;;;;;;;;21.10;64.50;;;;;;5012555;28;1061;-76
2021/09/08 14:26:37;;;;;;;;;;;21.10;64.80;;;;;;5011820;28;1272;-76